sensor_id;sensor_type;location;lat;lon;timestamp;pressure;altitude;pressure_sealevel;temperature;humidity
61914;BME280;50095;53.336;-1.488;2022-08-07T00:01:09;101103.14;;;20.98;40.98
61914;BME280;50095;53.336;-1.488;2022-08-07T00:03:37;101102.68;;;21.00;40.93
61914;BME280;50095;53.336;-1.488;2022-08-07T00:06:05;101100.31;;;21.15;41.18
61914;BME280;50095;53.336;-1.488;2022-08-07T00:08:32;101100.73;;;21.42;41.12
61914;BME280;50095;53.336;-1.488;2022-08-07T00:11:00;101095.50;;;21.35;41.30
61914;BME280;50095;53.336;-1.488;2022-08-07T00:13:27;101098.09;;;20.75;41.53
61914;BME280;50095;53.336;-1.488;2022-08-07T00:15:55;101095.65;;;20.78;41.52
61914;BME280;50095;53.336;-1.488;2022-08-07T00:18:27;101095.16;;;21.23;41.61
61914;BME280;50095;53.336;-1.488;2022-08-07T00:20:56;101095.00;;;21.21;41.68
61914;BME280;50095;53.336;-1.488;2022-08-07T00:23:24;101100.33;;;21.03;41.65
61914;BME280;50095;53.336;-1.488;2022-08-07T00:25:51;101092.36;;;21.24;41.65
61914;BME280;50095;53.336;-1.488;2022-08-07T00:28:19;101092.95;;;20.74;41.66
61914;BME280;50095;53.336;-1.488;2022-08-07T00:30:46;101095.80;;;20.79;41.61
61914;BME280;50095;53.336;-1.488;2022-08-07T00:33:14;101097.97;;;20.68;41.71
61914;BME280;50095;53.336;-1.488;2022-08-07T00:35:41;101093.06;;;20.97;41.71
61914;BME280;50095;53.336;-1.488;2022-08-07T00:38:09;101092.55;;;20.58;41.83
61914;BME280;50095;53.336;-1.488;2022-08-07T00:40:37;101093.53;;;21.01;41.94
61914;BME280;50095;53.336;-1.488;2022-08-07T00:43:04;101095.36;;;21.05;41.85
61914;BME280;50095;53.336;-1.488;2022-08-07T00:45:32;101093.74;;;20.53;41.87
61914;BME280;50095;53.336;-1.488;2022-08-07T00:47:59;101096.45;;;21.08;41.71
61914;BME280;50095;53.336;-1.488;2022-08-07T00:50:26;101096.36;;;21.02;41.80
61914;BME280;50095;53.336;-1.488;2022-08-07T00:52:53;101092.57;;;20.98;41.85
61914;BME280;50095;53.336;-1.488;2022-08-07T00:55:21;101088.32;;;21.03;41.79
61914;BME280;50095;53.336;-1.488;2022-08-07T00:57:48;101085.43;;;20.79;41.82
61914;BME280;50095;53.336;-1.488;2022-08-07T01:00:16;101082.30;;;20.71;41.99
61914;BME280;50095;53.336;-1.488;2022-08-07T01:02:45;101080.97;;;20.82;42.14
61914;BME280;50095;53.336;-1.488;2022-08-07T01:05:12;101082.73;;;20.45;41.99
61914;BME280;50095;53.336;-1.488;2022-08-07T01:07:40;101085.29;;;20.93;41.96
61914;BME280;50095;53.336;-1.488;2022-08-07T01:10:08;101083.55;;;20.95;41.86
61914;BME280;50095;53.336;-1.488;2022-08-07T01:12:36;101082.46;;;21.00;41.72
61914;BME280;50095;53.336;-1.488;2022-08-07T01:15:05;101083.41;;;20.71;41.78
61914;BME280;50095;53.336;-1.488;2022-08-07T01:17:33;101080.37;;;20.67;41.79
61914;BME280;50095;53.336;-1.488;2022-08-07T01:20:05;101077.38;;;20.76;41.61
61914;BME280;50095;53.336;-1.488;2022-08-07T01:22:34;101070.83;;;20.85;41.77
61914;BME280;50095;53.336;-1.488;2022-08-07T01:25:04;101071.01;;;20.90;41.66
61914;BME280;50095;53.336;-1.488;2022-08-07T01:27:31;101065.88;;;20.83;41.73
61914;BME280;50095;53.336;-1.488;2022-08-07T01:29:59;101063.36;;;20.85;41.64
61914;BME280;50095;53.336;-1.488;2022-08-07T01:32:27;101063.57;;;20.69;41.58
61914;BME280;50095;53.336;-1.488;2022-08-07T01:34:54;101063.55;;;20.78;41.71
61914;BME280;50095;53.336;-1.488;2022-08-07T01:37:23;101065.13;;;20.69;41.80
61914;BME280;50095;53.336;-1.488;2022-08-07T01:39:50;101066.02;;;20.90;41.53
61914;BME280;50095;53.336;-1.488;2022-08-07T01:42:18;101064.78;;;20.70;41.75
61914;BME280;50095;53.336;-1.488;2022-08-07T01:44:46;101062.91;;;20.73;41.68
61914;BME280;50095;53.336;-1.488;2022-08-07T01:47:13;101061.98;;;20.70;41.73
61914;BME280;50095;53.336;-1.488;2022-08-07T01:49:41;101058.49;;;20.51;41.66
61914;BME280;50095;53.336;-1.488;2022-08-07T01:52:08;101052.15;;;20.62;41.86
61914;BME280;50095;53.336;-1.488;2022-08-07T01:54:40;101053.98;;;20.75;41.68
61914;BME280;50095;53.336;-1.488;2022-08-07T01:57:13;101048.87;;;20.54;42.02
61914;BME280;50095;53.336;-1.488;2022-08-07T01:59:45;101047.97;;;20.76;42.07
61914;BME280;50095;53.336;-1.488;2022-08-07T02:02:18;101045.35;;;20.67;41.86
61914;BME280;50095;53.336;-1.488;2022-08-07T02:04:52;101048.48;;;20.54;42.08
61914;BME280;50095;53.336;-1.488;2022-08-07T02:07:23;101047.84;;;20.64;41.94
61914;BME280;50095;53.336;-1.488;2022-08-07T02:09:53;101043.57;;;20.60;41.99
61914;BME280;50095;53.336;-1.488;2022-08-07T02:12:22;101040.78;;;20.59;42.04
61914;BME280;50095;53.336;-1.488;2022-08-07T02:14:53;101037.21;;;20.60;42.01
61914;BME280;50095;53.336;-1.488;2022-08-07T02:17:22;101034.31;;;20.52;42.15
61914;BME280;50095;53.336;-1.488;2022-08-07T02:19:52;101029.08;;;20.39;42.35
61914;BME280;50095;53.336;-1.488;2022-08-07T02:22:21;101029.44;;;20.40;42.39
61914;BME280;50095;53.336;-1.488;2022-08-07T02:24:52;101029.96;;;20.46;42.32
61914;BME280;50095;53.336;-1.488;2022-08-07T02:27:22;101027.91;;;20.35;42.46
61914;BME280;50095;53.336;-1.488;2022-08-07T02:29:50;101026.62;;;20.37;42.48
61914;BME280;50095;53.336;-1.488;2022-08-07T02:32:19;101027.60;;;20.53;42.60
61914;BME280;50095;53.336;-1.488;2022-08-07T02:34:47;101024.70;;;20.45;42.40
61914;BME280;50095;53.336;-1.488;2022-08-07T02:37:16;101027.15;;;20.42;42.45
61914;BME280;50095;53.336;-1.488;2022-08-07T02:39:45;101023.56;;;20.32;42.60
61914;BME280;50095;53.336;-1.488;2022-08-07T02:42:13;101020.37;;;20.58;42.55
61914;BME280;50095;53.336;-1.488;2022-08-07T02:44:43;101017.98;;;20.24;42.77
61914;BME280;50095;53.336;-1.488;2022-08-07T02:47:12;101015.79;;;20.59;42.53
61914;BME280;50095;53.336;-1.488;2022-08-07T02:49:39;101012.98;;;20.27;42.70
61914;BME280;50095;53.336;-1.488;2022-08-07T02:52:10;101011.10;;;20.17;42.85
61914;BME280;50095;53.336;-1.488;2022-08-07T02:54:41;101012.55;;;20.28;42.64
61914;BME280;50095;53.336;-1.488;2022-08-07T02:57:12;101015.10;;;20.47;42.69
61914;BME280;50095;53.336;-1.488;2022-08-07T02:59:41;101014.27;;;20.25;42.67
61914;BME280;50095;53.336;-1.488;2022-08-07T03:02:12;101013.46;;;20.51;42.61
61914;BME280;50095;53.336;-1.488;2022-08-07T03:04:44;101015.32;;;20.33;42.87
61914;BME280;50095;53.336;-1.488;2022-08-07T03:07:12;101015.43;;;20.15;42.82
61914;BME280;50095;53.336;-1.488;2022-08-07T03:09:41;101014.72;;;20.16;42.81
61914;BME280;50095;53.336;-1.488;2022-08-07T03:12:11;101011.33;;;20.05;42.96
61914;BME280;50095;53.336;-1.488;2022-08-07T03:14:40;101007.94;;;20.13;42.85
61914;BME280;50095;53.336;-1.488;2022-08-07T03:17:08;101006.45;;;20.34;42.85
61914;BME280;50095;53.336;-1.488;2022-08-07T03:19:36;101002.95;;;20.56;42.91
61914;BME280;50095;53.336;-1.488;2022-08-07T03:22:05;100997.26;;;20.14;42.77
61914;BME280;50095;53.336;-1.488;2022-08-07T03:24:33;100993.26;;;20.07;42.88
61914;BME280;50095;53.336;-1.488;2022-08-07T03:27:02;100995.80;;;20.22;43.01
61914;BME280;50095;53.336;-1.488;2022-08-07T03:29:33;100998.18;;;20.17;42.72
61914;BME280;50095;53.336;-1.488;2022-08-07T03:32:04;101001.10;;;19.93;43.05
61914;BME280;50095;53.336;-1.488;2022-08-07T03:34:33;101005.75;;;20.31;42.84
61914;BME280;50095;53.336;-1.488;2022-08-07T03:37:03;101010.15;;;20.01;42.94
61914;BME280;50095;53.336;-1.488;2022-08-07T03:39:33;101007.63;;;20.18;43.03
61914;BME280;50095;53.336;-1.488;2022-08-07T03:42:02;101010.18;;;19.93;43.03
61914;BME280;50095;53.336;-1.488;2022-08-07T03:44:30;101010.20;;;20.21;42.95
61914;BME280;50095;53.336;-1.488;2022-08-07T03:47:00;101010.14;;;19.86;43.15
61914;BME280;50095;53.336;-1.488;2022-08-07T03:49:28;101012.55;;;19.90;43.09
61914;BME280;50095;53.336;-1.488;2022-08-07T03:51:57;101013.89;;;20.16;43.04
61914;BME280;50095;53.336;-1.488;2022-08-07T03:54:25;101017.22;;;20.08;43.17
61914;BME280;50095;53.336;-1.488;2022-08-07T03:56:54;101017.77;;;20.03;43.25
61914;BME280;50095;53.336;-1.488;2022-08-07T03:59:22;101019.26;;;20.31;43.22
61914;BME280;50095;53.336;-1.488;2022-08-07T04:01:53;101018.91;;;20.04;43.24
61914;BME280;50095;53.336;-1.488;2022-08-07T04:04:20;101018.45;;;19.87;43.51
61914;BME280;50095;53.336;-1.488;2022-08-07T04:06:48;101013.92;;;19.91;43.42
61914;BME280;50095;53.336;-1.488;2022-08-07T04:09:17;101013.51;;;19.67;43.48
61914;BME280;50095;53.336;-1.488;2022-08-07T04:11:46;101008.93;;;19.98;43.34
61914;BME280;50095;53.336;-1.488;2022-08-07T04:14:15;101008.79;;;20.06;43.59
61914;BME280;50095;53.336;-1.488;2022-08-07T04:16:43;101003.89;;;20.12;43.52
61914;BME280;50095;53.336;-1.488;2022-08-07T04:19:10;100997.21;;;20.31;43.23
61914;BME280;50095;53.336;-1.488;2022-08-07T04:21:38;100992.42;;;19.90;43.40
61914;BME280;50095;53.336;-1.488;2022-08-07T04:24:06;100989.55;;;19.76;43.61
61914;BME280;50095;53.336;-1.488;2022-08-07T04:26:34;100989.87;;;20.12;43.42
61914;BME280;50095;53.336;-1.488;2022-08-07T04:29:02;100990.61;;;19.73;43.67
61914;BME280;50095;53.336;-1.488;2022-08-07T04:31:29;100986.90;;;19.92;43.37
61914;BME280;50095;53.336;-1.488;2022-08-07T04:33:57;100982.19;;;19.83;43.52
61914;BME280;50095;53.336;-1.488;2022-08-07T04:36:25;100987.12;;;19.80;43.56
61914;BME280;50095;53.336;-1.488;2022-08-07T04:38:52;100988.76;;;19.62;43.81
61914;BME280;50095;53.336;-1.488;2022-08-07T04:41:20;100992.83;;;19.72;43.69
61914;BME280;50095;53.336;-1.488;2022-08-07T04:43:48;100992.66;;;20.01;43.63
61914;BME280;50095;53.336;-1.488;2022-08-07T04:46:22;100990.89;;;19.62;43.83
61914;BME280;50095;53.336;-1.488;2022-08-07T04:48:59;100991.92;;;19.68;43.73
61914;BME280;50095;53.336;-1.488;2022-08-07T04:51:36;100992.09;;;20.04;43.62
61914;BME280;50095;53.336;-1.488;2022-08-07T04:54:13;100987.79;;;19.89;43.37
61914;BME280;50095;53.336;-1.488;2022-08-07T04:56:45;100987.71;;;19.84;43.45
61914;BME280;50095;53.336;-1.488;2022-08-07T04:59:20;100986.24;;;20.17;43.30
61914;BME280;50095;53.336;-1.488;2022-08-07T05:01:57;100990.62;;;20.13;43.35
61914;BME280;50095;53.336;-1.488;2022-08-07T05:04:34;100984.77;;;19.93;43.24
61914;BME280;50095;53.336;-1.488;2022-08-07T05:07:13;100981.99;;;20.22;43.19
61914;BME280;50095;53.336;-1.488;2022-08-07T05:09:52;100978.33;;;19.79;43.06
61914;BME280;50095;53.336;-1.488;2022-08-07T05:12:28;100978.29;;;20.07;42.97
61914;BME280;50095;53.336;-1.488;2022-08-07T05:15:02;100982.96;;;20.38;42.88
61914;BME280;50095;53.336;-1.488;2022-08-07T05:17:32;100986.51;;;19.87;42.92
61914;BME280;50095;53.336;-1.488;2022-08-07T05:20:01;100989.26;;;19.89;42.91
61914;BME280;50095;53.336;-1.488;2022-08-07T05:22:29;100989.79;;;20.16;42.83
61914;BME280;50095;53.336;-1.488;2022-08-07T05:24:58;100981.65;;;20.23;42.75
61914;BME280;50095;53.336;-1.488;2022-08-07T05:27:26;100979.56;;;20.05;42.62
61914;BME280;50095;53.336;-1.488;2022-08-07T05:29:55;100973.62;;;20.27;42.28
61914;BME280;50095;53.336;-1.488;2022-08-07T05:32:24;100977.79;;;20.41;42.39
61914;BME280;50095;53.336;-1.488;2022-08-07T05:34:52;100973.51;;;20.33;42.17
61914;BME280;50095;53.336;-1.488;2022-08-07T05:37:21;100978.03;;;20.25;42.24
61914;BME280;50095;53.336;-1.488;2022-08-07T05:39:48;100982.49;;;20.14;42.52
61914;BME280;50095;53.336;-1.488;2022-08-07T05:42:16;100982.25;;;20.24;42.42
61914;BME280;50095;53.336;-1.488;2022-08-07T05:44:43;100979.33;;;20.54;42.21
61914;BME280;50095;53.336;-1.488;2022-08-07T05:47:11;100980.60;;;20.45;41.93
61914;BME280;50095;53.336;-1.488;2022-08-07T05:49:40;100979.55;;;20.32;41.69
61914;BME280;50095;53.336;-1.488;2022-08-07T05:52:08;100982.37;;;20.59;41.55
61914;BME280;50095;53.336;-1.488;2022-08-07T05:54:35;100981.81;;;20.63;41.42
61914;BME280;50095;53.336;-1.488;2022-08-07T05:57:03;100990.83;;;20.39;41.38
61914;BME280;50095;53.336;-1.488;2022-08-07T05:59:36;100997.09;;;20.39;41.33
61914;BME280;50095;53.336;-1.488;2022-08-07T06:02:05;101000.45;;;20.69;40.86
61914;BME280;50095;53.336;-1.488;2022-08-07T06:04:39;100996.35;;;20.77;41.00
61914;BME280;50095;53.336;-1.488;2022-08-07T06:07:08;100998.54;;;20.70;41.09
61914;BME280;50095;53.336;-1.488;2022-08-07T06:09:36;101000.67;;;20.66;40.84
61914;BME280;50095;53.336;-1.488;2022-08-07T06:12:04;100998.14;;;20.88;40.82
61914;BME280;50095;53.336;-1.488;2022-08-07T06:14:32;100998.96;;;20.57;40.95
61914;BME280;50095;53.336;-1.488;2022-08-07T06:17:00;100998.93;;;20.63;40.90
61914;BME280;50095;53.336;-1.488;2022-08-07T06:19:29;100994.42;;;21.00;40.73
61914;BME280;50095;53.336;-1.488;2022-08-07T06:21:58;100988.94;;;20.45;40.80
61914;BME280;50095;53.336;-1.488;2022-08-07T06:24:26;100987.81;;;21.18;40.46
61914;BME280;50095;53.336;-1.488;2022-08-07T06:26:54;100989.49;;;20.71;40.41
61914;BME280;50095;53.336;-1.488;2022-08-07T06:29:26;100986.14;;;20.80;40.64
61914;BME280;50095;53.336;-1.488;2022-08-07T06:31:53;100982.52;;;20.86;40.56
61914;BME280;50095;53.336;-1.488;2022-08-07T06:34:23;100982.69;;;21.09;40.60
61914;BME280;50095;53.336;-1.488;2022-08-07T06:36:52;100990.35;;;20.91;40.53
61914;BME280;50095;53.336;-1.488;2022-08-07T06:39:20;100989.59;;;20.96;40.47
61914;BME280;50095;53.336;-1.488;2022-08-07T06:41:54;100989.52;;;21.29;40.34
61914;BME280;50095;53.336;-1.488;2022-08-07T06:44:25;100995.48;;;20.73;40.45
61914;BME280;50095;53.336;-1.488;2022-08-07T06:46:53;100995.79;;;20.87;40.29
61914;BME280;50095;53.336;-1.488;2022-08-07T06:49:21;100999.93;;;21.20;40.22
61914;BME280;50095;53.336;-1.488;2022-08-07T06:51:49;101001.03;;;21.45;40.21
61914;BME280;50095;53.336;-1.488;2022-08-07T06:54:18;101003.01;;;21.26;40.16
61914;BME280;50095;53.336;-1.488;2022-08-07T06:56:47;101005.76;;;21.10;40.04
61914;BME280;50095;53.336;-1.488;2022-08-07T06:59:18;101007.70;;;21.33;40.14
61914;BME280;50095;53.336;-1.488;2022-08-07T07:01:47;101002.80;;;21.18;39.94
61914;BME280;50095;53.336;-1.488;2022-08-07T07:04:15;101004.56;;;21.13;40.00
61914;BME280;50095;53.336;-1.488;2022-08-07T07:06:43;101002.52;;;21.16;39.99
61914;BME280;50095;53.336;-1.488;2022-08-07T07:09:20;101002.07;;;21.28;39.80
61914;BME280;50095;53.336;-1.488;2022-08-07T07:11:59;100998.54;;;21.35;39.73
61914;BME280;50095;53.336;-1.488;2022-08-07T07:14:33;101007.00;;;21.61;39.37
61914;BME280;50095;53.336;-1.488;2022-08-07T07:17:07;101013.34;;;21.59;39.38
61914;BME280;50095;53.336;-1.488;2022-08-07T07:19:45;101013.39;;;21.26;39.51
61914;BME280;50095;53.336;-1.488;2022-08-07T07:22:14;101014.25;;;21.49;39.52
61914;BME280;50095;53.336;-1.488;2022-08-07T07:24:43;101013.98;;;21.84;39.02
61914;BME280;50095;53.336;-1.488;2022-08-07T07:27:13;101016.43;;;21.79;39.11
61914;BME280;50095;53.336;-1.488;2022-08-07T07:29:46;101021.40;;;22.03;38.80
61914;BME280;50095;53.336;-1.488;2022-08-07T07:32:15;101024.64;;;21.87;38.96
61914;BME280;50095;53.336;-1.488;2022-08-07T07:34:46;101022.83;;;21.89;38.95
61914;BME280;50095;53.336;-1.488;2022-08-07T07:37:16;101026.37;;;21.92;38.61
61914;BME280;50095;53.336;-1.488;2022-08-07T07:39:44;101027.55;;;21.92;38.65
61914;BME280;50095;53.336;-1.488;2022-08-07T07:42:14;101029.29;;;21.94;38.95
61914;BME280;50095;53.336;-1.488;2022-08-07T07:44:44;101029.40;;;21.86;38.74
61914;BME280;50095;53.336;-1.488;2022-08-07T07:47:14;101026.11;;;22.08;38.44
61914;BME280;50095;53.336;-1.488;2022-08-07T07:49:44;101030.52;;;21.95;38.72
61914;BME280;50095;53.336;-1.488;2022-08-07T07:52:13;101029.22;;;22.34;37.92
61914;BME280;50095;53.336;-1.488;2022-08-07T07:54:42;101027.56;;;22.17;37.96
61914;BME280;50095;53.336;-1.488;2022-08-07T07:57:13;101026.82;;;22.38;37.70
61914;BME280;50095;53.336;-1.488;2022-08-07T07:59:42;101024.31;;;22.44;37.60
61914;BME280;50095;53.336;-1.488;2022-08-07T08:02:10;101024.72;;;22.05;38.43
61914;BME280;50095;53.336;-1.488;2022-08-07T08:04:41;101027.50;;;21.78;39.21
61914;BME280;50095;53.336;-1.488;2022-08-07T08:07:12;101031.07;;;21.65;38.70
61914;BME280;50095;53.336;-1.488;2022-08-07T08:09:41;101026.67;;;21.80;38.60
61914;BME280;50095;53.336;-1.488;2022-08-07T08:12:09;101022.15;;;21.93;38.07
61914;BME280;50095;53.336;-1.488;2022-08-07T08:14:36;101019.42;;;22.56;37.55
61914;BME280;50095;53.336;-1.488;2022-08-07T08:17:07;101017.38;;;23.13;36.92
61914;BME280;50095;53.336;-1.488;2022-08-07T08:19:37;101014.61;;;22.81;37.20
61914;BME280;50095;53.336;-1.488;2022-08-07T08:22:06;101012.67;;;23.15;36.81
61914;BME280;50095;53.336;-1.488;2022-08-07T08:24:38;101020.56;;;22.79;37.19
61914;BME280;50095;53.336;-1.488;2022-08-07T08:27:08;101013.01;;;22.78;37.19
61914;BME280;50095;53.336;-1.488;2022-08-07T08:29:41;101007.98;;;22.80;37.16
61914;BME280;50095;53.336;-1.488;2022-08-07T08:32:11;101009.25;;;23.14;37.15
61914;BME280;50095;53.336;-1.488;2022-08-07T08:34:42;101011.35;;;22.42;37.66
61914;BME280;50095;53.336;-1.488;2022-08-07T08:37:11;101004.84;;;22.99;36.98
61914;BME280;50095;53.336;-1.488;2022-08-07T08:39:39;101000.01;;;22.75;37.36
61914;BME280;50095;53.336;-1.488;2022-08-07T08:42:15;101001.83;;;21.76;38.59
61914;BME280;50095;53.336;-1.488;2022-08-07T08:44:53;100995.87;;;22.79;37.32
61914;BME280;50095;53.336;-1.488;2022-08-07T08:47:26;100986.15;;;23.44;35.97
61914;BME280;50095;53.336;-1.488;2022-08-07T08:50:05;100982.87;;;23.61;35.75
61914;BME280;50095;53.336;-1.488;2022-08-07T08:52:37;100985.21;;;23.91;35.34
61914;BME280;50095;53.336;-1.488;2022-08-07T08:55:23;100984.29;;;23.82;35.35
61914;BME280;50095;53.336;-1.488;2022-08-07T08:58:02;100986.52;;;22.81;36.64
61914;BME280;50095;53.336;-1.488;2022-08-07T09:00:39;100993.50;;;23.46;35.77
61914;BME280;50095;53.336;-1.488;2022-08-07T09:03:18;100999.65;;;23.09;36.30
61914;BME280;50095;53.336;-1.488;2022-08-07T09:05:53;100990.37;;;22.65;37.21
61914;BME280;50095;53.336;-1.488;2022-08-07T09:08:32;100992.96;;;24.03;35.61
61914;BME280;50095;53.336;-1.488;2022-08-07T09:11:13;101010.90;;;22.60;36.25
61914;BME280;50095;53.336;-1.488;2022-08-07T09:13:55;101003.07;;;23.14;36.34
61914;BME280;50095;53.336;-1.488;2022-08-07T09:16:35;101000.81;;;24.05;34.84
61914;BME280;50095;53.336;-1.488;2022-08-07T09:19:16;100992.06;;;23.96;34.83
61914;BME280;50095;53.336;-1.488;2022-08-07T09:21:55;100998.81;;;22.96;35.54
61914;BME280;50095;53.336;-1.488;2022-08-07T09:24:33;100991.90;;;23.27;35.28
61914;BME280;50095;53.336;-1.488;2022-08-07T09:27:18;101001.51;;;23.08;35.47
61914;BME280;50095;53.336;-1.488;2022-08-07T09:29:55;100988.62;;;23.37;35.14
61914;BME280;50095;53.336;-1.488;2022-08-07T09:32:37;100991.01;;;22.93;35.98
61914;BME280;50095;53.336;-1.488;2022-08-07T09:35:18;100980.82;;;23.19;35.43
61914;BME280;50095;53.336;-1.488;2022-08-07T09:37:57;100983.52;;;23.42;35.20
61914;BME280;50095;53.336;-1.488;2022-08-07T09:40:36;100979.45;;;24.26;34.66
61914;BME280;50095;53.336;-1.488;2022-08-07T09:43:18;100979.54;;;24.56;34.07
61914;BME280;50095;53.336;-1.488;2022-08-07T09:45:56;100977.21;;;23.79;34.89
61914;BME280;50095;53.336;-1.488;2022-08-07T09:48:39;100971.38;;;22.97;35.28
61914;BME280;50095;53.336;-1.488;2022-08-07T09:51:20;100967.64;;;23.55;35.69
61914;BME280;50095;53.336;-1.488;2022-08-07T09:53:58;100974.71;;;22.46;36.70
61914;BME280;50095;53.336;-1.488;2022-08-07T09:56:45;100966.86;;;22.56;36.49
61914;BME280;50095;53.336;-1.488;2022-08-07T09:59:29;100960.03;;;23.04;36.45
61914;BME280;50095;53.336;-1.488;2022-08-07T10:02:14;100963.47;;;24.11;35.48
61914;BME280;50095;53.336;-1.488;2022-08-07T10:05:02;100971.25;;;24.16;35.18
61914;BME280;50095;53.336;-1.488;2022-08-07T10:07:42;100970.64;;;22.82;36.46
61914;BME280;50095;53.336;-1.488;2022-08-07T10:10:28;100957.14;;;23.96;34.89
61914;BME280;50095;53.336;-1.488;2022-08-07T10:13:16;100957.67;;;24.12;35.01
61914;BME280;50095;53.336;-1.488;2022-08-07T10:15:57;100962.86;;;25.44;33.70
61914;BME280;50095;53.336;-1.488;2022-08-07T10:19:21;100965.10;;;25.69;32.97
61914;BME280;50095;53.336;-1.488;2022-08-07T10:21:59;100963.82;;;25.94;32.73
61914;BME280;50095;53.336;-1.488;2022-08-07T10:24:47;100969.51;;;26.01;32.50
61914;BME280;50095;53.336;-1.488;2022-08-07T10:27:30;100966.72;;;26.30;32.11
61914;BME280;50095;53.336;-1.488;2022-08-07T10:30:06;100964.86;;;26.46;32.03
61914;BME280;50095;53.336;-1.488;2022-08-07T10:33:02;100972.07;;;26.54;32.17
61914;BME280;50095;53.336;-1.488;2022-08-07T10:35:41;100971.29;;;26.28;31.41
61914;BME280;50095;53.336;-1.488;2022-08-07T10:38:23;100964.66;;;26.94;31.56
61914;BME280;50095;53.336;-1.488;2022-08-07T10:41:06;100958.20;;;26.77;31.74
61914;BME280;50095;53.336;-1.488;2022-08-07T10:43:42;100961.25;;;26.85;31.67
61914;BME280;50095;53.336;-1.488;2022-08-07T10:46:17;100960.74;;;25.73;31.04
61914;BME280;50095;53.336;-1.488;2022-08-07T10:48:54;100956.53;;;26.61;31.13
61914;BME280;50095;53.336;-1.488;2022-08-07T10:51:31;100949.16;;;26.80;31.20
61914;BME280;50095;53.336;-1.488;2022-08-07T10:54:12;100950.06;;;26.83;31.09
61914;BME280;50095;53.336;-1.488;2022-08-07T10:56:52;100948.10;;;26.93;31.03
61914;BME280;50095;53.336;-1.488;2022-08-07T10:59:29;100949.83;;;26.94;31.17
61914;BME280;50095;53.336;-1.488;2022-08-07T11:02:07;100956.50;;;27.14;30.93
61914;BME280;50095;53.336;-1.488;2022-08-07T11:04:51;100940.50;;;27.00;30.79
61914;BME280;50095;53.336;-1.488;2022-08-07T11:07:27;100938.13;;;27.20;30.82
61914;BME280;50095;53.336;-1.488;2022-08-07T11:10:02;100936.44;;;27.05;30.78
61914;BME280;50095;53.336;-1.488;2022-08-07T11:12:33;100935.88;;;26.73;30.56
61914;BME280;50095;53.336;-1.488;2022-08-07T11:15:06;100929.67;;;26.61;30.45
61914;BME280;50095;53.336;-1.488;2022-08-07T11:17:40;100929.26;;;26.85;30.90
61914;BME280;50095;53.336;-1.488;2022-08-07T11:20:14;100934.29;;;26.63;30.33
61914;BME280;50095;53.336;-1.488;2022-08-07T11:22:52;100931.42;;;26.92;30.68
61914;BME280;50095;53.336;-1.488;2022-08-07T11:25:25;100932.55;;;27.26;30.33
61914;BME280;50095;53.336;-1.488;2022-08-07T11:28:07;100924.61;;;26.44;30.81
61914;BME280;50095;53.336;-1.488;2022-08-07T11:30:48;100925.45;;;27.07;30.85
61914;BME280;50095;53.336;-1.488;2022-08-07T11:33:35;100920.15;;;26.97;30.62
61914;BME280;50095;53.336;-1.488;2022-08-07T11:36:13;100916.57;;;26.55;31.34
61914;BME280;50095;53.336;-1.488;2022-08-07T11:38:48;100919.63;;;26.70;30.41
61914;BME280;50095;53.336;-1.488;2022-08-07T11:41:22;100915.73;;;26.81;30.41
61914;BME280;50095;53.336;-1.488;2022-08-07T11:43:59;100916.61;;;26.64;30.34
61914;BME280;50095;53.336;-1.488;2022-08-07T11:46:44;100916.46;;;26.80;30.10
61914;BME280;50095;53.336;-1.488;2022-08-07T11:49:33;100915.32;;;27.25;30.10
61914;BME280;50095;53.336;-1.488;2022-08-07T11:52:24;100911.41;;;26.59;30.10
61914;BME280;50095;53.336;-1.488;2022-08-07T11:55:03;100914.58;;;26.59;29.98
61914;BME280;50095;53.336;-1.488;2022-08-07T11:57:40;100915.07;;;26.55;30.38
61914;BME280;50095;53.336;-1.488;2022-08-07T12:00:10;100911.85;;;26.14;30.17
61914;BME280;50095;53.336;-1.488;2022-08-07T12:03:19;100917.86;;;26.53;30.48
61914;BME280;50095;53.336;-1.488;2022-08-07T12:06:02;100917.86;;;25.56;31.02
61914;BME280;50095;53.336;-1.488;2022-08-07T12:08:39;100910.63;;;26.36;30.64
61914;BME280;50095;53.336;-1.488;2022-08-07T12:11:15;100910.90;;;26.51;30.41
61914;BME280;50095;53.336;-1.488;2022-08-07T12:13:51;100907.06;;;25.95;31.13
61914;BME280;50095;53.336;-1.488;2022-08-07T12:16:24;100908.30;;;26.29;30.47
61914;BME280;50095;53.336;-1.488;2022-08-07T12:19:10;100901.68;;;26.20;31.33
61914;BME280;50095;53.336;-1.488;2022-08-07T12:21:46;100899.87;;;26.20;30.53
61914;BME280;50095;53.336;-1.488;2022-08-07T12:24:21;100897.96;;;25.40;31.51
61914;BME280;50095;53.336;-1.488;2022-08-07T12:26:55;100910.75;;;26.55;30.48
61914;BME280;50095;53.336;-1.488;2022-08-07T12:29:28;100914.27;;;26.02;30.26
61914;BME280;50095;53.336;-1.488;2022-08-07T12:32:06;100912.69;;;26.29;30.27
61914;BME280;50095;53.336;-1.488;2022-08-07T12:34:38;100911.64;;;26.77;29.80
61914;BME280;50095;53.336;-1.488;2022-08-07T12:37:07;100906.20;;;27.50;30.91
61914;BME280;50095;53.336;-1.488;2022-08-07T12:39:39;100920.85;;;27.04;29.27
61914;BME280;50095;53.336;-1.488;2022-08-07T12:42:09;100924.17;;;26.61;29.04
61914;BME280;50095;53.336;-1.488;2022-08-07T12:44:39;100918.07;;;26.87;30.39
61914;BME280;50095;53.336;-1.488;2022-08-07T12:47:11;100900.91;;;27.00;29.81
61914;BME280;50095;53.336;-1.488;2022-08-07T12:49:50;100905.31;;;26.33;30.52
61914;BME280;50095;53.336;-1.488;2022-08-07T12:52:27;100911.30;;;26.73;31.26
61914;BME280;50095;53.336;-1.488;2022-08-07T12:55:01;100904.00;;;26.89;30.99
61914;BME280;50095;53.336;-1.488;2022-08-07T12:57:32;100906.94;;;26.78;31.15
61914;BME280;50095;53.336;-1.488;2022-08-07T13:00:02;100903.91;;;27.06;30.91
61914;BME280;50095;53.336;-1.488;2022-08-07T13:02:45;100909.99;;;27.28;30.57
61914;BME280;50095;53.336;-1.488;2022-08-07T13:05:28;100906.38;;;27.10;30.72
61914;BME280;50095;53.336;-1.488;2022-08-07T13:08:16;100902.79;;;27.07;30.41